Terminal Aerodrome Forecast
Issued by NWS Wilmington, OH

Current Version | Previous Version | Graphics & Text | Print | Product List | Glossary On
Versions: 1 2 3 4 5 6 7 8 9 10 11 12 13 14 15 16 17 18 19 20 21 22 23 24 25
450
FTUS41 KILN 221014 AAA
TAFCMH
TAF AMD
KCMH 221014Z 2210/2306 05011KT P6SM -RA SCT015 OVC040
     FM221600 05009KT P6SM BKN012 OVC030
     FM230100 06004KT P6SM OVC008=

USA.gov is the U.S. government's official web portal to all federal, state and local government web resources and services.